<?xml version="1.0" encoding="utf-8"?>
<gpx xmlns:xsi="http://www.w3.org/2001/XMLSchema-instance" xmlns:xsd="http://www.w3.org/2001/XMLSchema" version="1.1" creator="Shapelink.com" xmlns="http://www.topografix.com/GPX/1/1" xmlns:gpxtpx="http://www.garmin.com/xmlschemas/TrackPointExtension/v1">
  <metadata>
    <name>Övrigt 1.08 km, 2020-06-20</name>
    <desc></desc>
    <author><name>Marian Moron</name></author> 
    <time>2020-06-20T08:58:35Z</time>
  </metadata>
  <trk>
    <name>Övrigt 1.08 km, 2020-06-20</name>
    <trkseg>
      <trkpt lat="51.229804750771" lon="4.457701285292">
        <ele>4.4</ele>
        <time>2020-06-20T08:58:35Z</time>
      </trkpt>
      <trkpt lat="51.229762170719" lon="4.456999301167">
        <ele>4.8</ele>
        <time>2020-06-20T08:59:13Z</time>
      </trkpt>
      <trkpt lat="51.230069367354" lon="4.456624714056">
        <ele>0</ele>
        <time>2020-06-20T08:59:55Z</time>
      </trkpt>
      <trkpt lat="51.230523750153" lon="4.456668299936">
        <ele>0</ele>
        <time>2020-06-20T09:00:31Z</time>
      </trkpt>
      <trkpt lat="51.230829354227" lon="4.456304441657">
        <ele>0</ele>
        <time>2020-06-20T09:00:59Z</time>
      </trkpt>
      <trkpt lat="51.230838239041" lon="4.456241493588">
        <ele>0</ele>
        <time>2020-06-20T09:01:01Z</time>
      </trkpt>
      <trkpt lat="51.230915855435" lon="4.456059522539">
        <ele>0</ele>
        <time>2020-06-20T09:01:15Z</time>
      </trkpt>
      <trkpt lat="51.230976959486" lon="4.456102521686">
        <ele>0</ele>
        <time>2020-06-20T09:01:20Z</time>
      </trkpt>
      <trkpt lat="51.231038482632" lon="4.456123811712">
        <ele>0</ele>
        <time>2020-06-20T09:01:26Z</time>
      </trkpt>
      <trkpt lat="51.231118781234" lon="4.455995065728">
        <ele>0</ele>
        <time>2020-06-20T09:01:32Z</time>
      </trkpt>
      <trkpt lat="51.231118445958" lon="4.455874282549">
        <ele>0</ele>
        <time>2020-06-20T09:01:38Z</time>
      </trkpt>
      <trkpt lat="51.230985928119" lon="4.455186715292">
        <ele>0</ele>
        <time>2020-06-20T09:02:21Z</time>
      </trkpt>
      <trkpt lat="51.230943767162" lon="4.455028297382">
        <ele>0</ele>
        <time>2020-06-20T09:02:36Z</time>
      </trkpt>
      <trkpt lat="51.230848548778" lon="4.454765021903">
        <ele>0</ele>
        <time>2020-06-20T09:02:55Z</time>
      </trkpt>
      <trkpt lat="51.230796748636" lon="4.454375263553">
        <ele>0</ele>
        <time>2020-06-20T09:03:24Z</time>
      </trkpt>
      <trkpt lat="51.230786438899" lon="4.454240314963">
        <ele>0</ele>
        <time>2020-06-20T09:03:34Z</time>
      </trkpt>
      <trkpt lat="51.230621986021" lon="4.453571606981">
        <ele>0</ele>
        <time>2020-06-20T09:04:24Z</time>
      </trkpt>
      <trkpt lat="51.230668673204" lon="4.452818241809">
        <ele>1.8</ele>
        <time>2020-06-20T09:05:31Z</time>
      </trkpt>
      <trkpt lat="51.230606395687" lon="4.452521187273">
        <ele>0</ele>
        <time>2020-06-20T09:05:56Z</time>
      </trkpt>
      <trkpt lat="51.230464154844" lon="4.45184166664">
        <ele>0</ele>
        <time>2020-06-20T09:06:45Z</time>
      </trkpt>
      <trkpt lat="51.230464573939" lon="4.451439251621">
        <ele>0</ele>
        <time>2020-06-20T09:07:13Z</time>
      </trkpt>
      <trkpt lat="51.230161735892" lon="4.451081595948">
        <ele>2</ele>
        <time>2020-06-20T09:08:05Z</time>
      </trkpt>
      <trkpt lat="51.22973107387" lon="4.451064161596">
        <ele>1.2</ele>
        <time>2020-06-20T09:08:58Z</time>
      </trkpt>
      <trkpt lat="51.229717998106" lon="4.451047481615">
        <ele>1.2</ele>
        <time>2020-06-20T09:08:59Z</time>
      </trkpt>
      <trkpt lat="51.229627389767" lon="4.45050978273">
        <ele>6</ele>
        <time>2020-06-20T09:12:58Z</time>
      </trkpt>
      <trkpt lat="51.229611631795" lon="4.450456725303">
        <ele>6.6</ele>
        <time>2020-06-20T09:13:02Z</time>
      </trkpt>
      <trkpt lat="51.229481628526" lon="4.449809391166">
        <ele>5.4</ele>
        <time>2020-06-20T09:13:54Z</time>
      </trkpt>
      <trkpt lat="51.229349613601" lon="4.449119812253">
        <ele>3.8</ele>
        <time>2020-06-20T09:14:40Z</time>
      </trkpt>
      <trkpt lat="51.229206115473" lon="4.448790152126">
        <ele>1.4</ele>
        <time>2020-06-20T09:15:13Z</time>
      </trkpt>
      <trkpt lat="51.228913168068" lon="4.448244741893">
        <ele>1.2</ele>
        <time>2020-06-20T09:15:54Z</time>
      </trkpt>
      <trkpt lat="51.228858685718" lon="4.448145835473">
        <ele>3.6</ele>
        <time>2020-06-20T09:16:10Z</time>
      </trkpt>
      <trkpt lat="51.228949461695" lon="4.448626202162">
        <ele>5.8</ele>
        <time>2020-06-20T09:17:00Z</time>
      </trkpt>
      <trkpt lat="51.228872599672" lon="4.448779255656">
        <ele>5.2</ele>
        <time>2020-06-20T09:17:43Z</time>
      </trkpt>
      <trkpt lat="51.228574204032" lon="4.449227519668">
        <ele>2</ele>
        <time>2020-06-20T09:19:00Z</time>
      </trkpt>
      <trkpt lat="51.228460964563" lon="4.449324665889">
        <ele>0</ele>
        <time>2020-06-20T09:21:10Z</time>
      </trkpt>
    </trkseg>
  </trk>
</gpx>